Telford, United Kingdom
Current Conditions -  °F | °C
As of 8:50 AM on Monday 22 Dec 2014 (Local Time) from EGOS Reporting Station
Overcast Overcast  
Wind Chill: 12°   Ceiling: 1600
Heat Index: 12°   Visibility: 6mi
Dew Point:   Wind: 18mph
Humidity: 82%   Direction: 230°SW
Pressure: 29.91"   Gusts: NA
Location:  52.68°N, 2.45°W
Report Text: EGOS 220850Z AUTO 23016KT 9999 OVC016/// 12/09 Q1013
Loading
Personal Weather Stations






























Interactive Weather Map New forecast layout! Learn more

10-Day Weather Forecast

Advertisements
Track Severe Weather on mobile